Time;durP1;ratioP1;P1;durP2;ratioP2;P2;SDS_P1;SDS_P2;PMS_P1;PMS_P2;Temp;Humidity;BMP_temperature;BMP_pressure;BME280_temperature;BME280_humidity;BME280_pressure;Samples;Min_cycle;Max_cycle;Signal;HPM_P1;HPM_P2
2023/01/15 00:01:02;;;;;;;30.58;16.55;;;;;;;16.60;56.42;99861.00;6157711;23;20204;-40
2023/01/15 00:03:29;;;;;;;35.70;18.13;;;;;;;16.60;55.84;99863.69;6156865;23;20018;-39
2023/01/15 00:06:01;;;;;;;34.83;19.20;;;;;;;16.59;55.83;99867.38;6155695;23;20068;-37
2023/01/15 00:08:28;;;;;;;32.42;18.17;;;;;;;16.60;56.26;99862.84;6155596;23;20025;-37
2023/01/15 00:10:55;;;;;;;31.42;17.90;;;;;;;16.60;56.74;99855.66;6155873;23;20033;-40
2023/01/15 00:13:21;;;;;;;32.05;16.77;;;;;;;16.60;56.24;99853.00;6156477;23;20022;-38
2023/01/15 00:15:48;;;;;;;28.63;15.85;;;;;;;16.59;55.73;99861.19;6156377;23;20406;-40
2023/01/15 00:18:15;;;;;;;32.80;18.00;;;;;;;16.59;56.70;99855.84;6128579;23;20033;-37
2023/01/15 00:20:41;;;;;;;29.20;16.80;;;;;;;16.58;56.45;99855.00;6154384;23;20108;-40
2023/01/15 00:27:37;;;;;;;27.40;16.20;;;;;;;16.58;55.89;99855.00;6155817;23;20047;-39
2023/01/15 00:28:40;;;;;;;31.95;17.08;;;;;;;16.57;56.49;99848.00;6155977;23;20025;-41
2023/01/15 00:31:07;;;;;;;30.65;15.90;;;;;;;16.56;56.12;99843.63;6156794;23;20057;-37
2023/01/15 00:33:34;;;;;;;27.52;16.33;;;;;;;16.56;56.36;99843.63;6156396;23;20022;-36
2023/01/15 00:36:00;;;;;;;27.25;15.35;;;;;;;16.56;56.03;99846.31;6157249;23;20075;-36
2023/01/15 00:38:27;;;;;;;26.35;15.27;;;;;;;16.55;56.22;99850.00;6155753;23;20484;-41
2023/01/15 00:40:53;;;;;;;27.08;14.85;;;;;;;16.54;55.81;99851.00;6155917;23;20469;-39
2023/01/15 00:43:20;;;;;;;28.33;14.75;;;;;;;16.54;55.71;99845.66;6155777;23;20100;-36
2023/01/15 00:45:46;;;;;;;28.23;15.10;;;;;;;16.54;55.78;99842.97;6156699;23;20394;-40
2023/01/15 00:48:13;;;;;;;26.00;14.80;;;;;;;16.53;56.69;99826.09;6155446;23;20025;-39
2023/01/15 00:50:39;;;;;;;28.33;14.75;;;;;;;16.53;56.74;99846.66;6157353;23;20104;-37
2023/01/15 00:53:06;;;;;;;24.63;14.25;;;;;;;16.53;56.66;99849.34;6155333;23;20021;-36
2023/01/15 00:55:32;;;;;;;25.45;13.75;;;;;;;16.51;56.26;99848.66;6156196;23;20043;-37
2023/01/15 00:57:59;;;;;;;24.20;13.40;;;;;;;16.51;55.97;99845.97;6157142;23;20277;-37
2023/01/15 01:00:25;;;;;;;25.30;14.73;;;;;;;16.50;55.46;99847.81;6156865;23;20032;-37
2023/01/15 01:02:52;;;;;;;22.85;13.23;;;;;;;16.49;56.12;99854.19;6156942;23;20105;-38
2023/01/15 01:05:18;;;;;;;23.85;13.63;;;;;;;16.50;56.32;99847.00;6156104;23;20117;-40
2023/01/15 01:07:45;;;;;;;22.58;12.05;;;;;;;16.50;55.76;99866.56;6156339;23;20317;-36
2023/01/15 01:10:12;;;;;;;23.00;12.30;;;;;;;16.48;56.01;99849.84;6154782;23;20022;-37
2023/01/15 01:12:38;;;;;;;22.77;12.13;;;;;;;16.49;55.59;99856.03;6156904;23;20029;-37
2023/01/15 01:15:05;;;;;;;21.83;11.77;;;;;;;16.50;55.91;99868.41;6157048;23;20029;-37
2023/01/15 01:17:32;;;;;;;23.25;12.05;;;;;;;16.49;55.28;99864.88;6156387;23;20326;-36
2023/01/15 01:19:59;;;;;;;21.25;11.57;;;;;;;16.50;56.24;99871.06;6155364;23;20053;-41
2023/01/15 01:22:26;;;;;;;20.15;11.55;;;;;;;16.50;55.51;99873.75;6156392;23;20431;-37
2023/01/15 01:24:53;;;;;;;20.75;11.35;;;;;;;16.49;56.02;99861.38;6154572;23;20120;-37
2023/01/15 01:27:19;;;;;;;18.77;11.20;;;;;;;16.50;56.43;99863.03;6156938;23;20259;-36
2023/01/15 01:29:46;;;;;;;22.30;11.50;;;;;;;16.50;56.19;99874.56;6156175;23;20100;-37
2023/01/15 01:32:13;;;;;;;18.88;10.38;;;;;;;16.49;55.50;99854.19;6155262;23;20025;-36
2023/01/15 01:34:40;;;;;;;20.35;10.48;;;;;;;16.49;55.62;99861.38;6155444;23;20271;-36
2023/01/15 01:37:07;;;;;;;19.00;10.30;;;;;;;16.48;56.01;99870.38;6156069;23;20282;-40
2023/01/15 01:39:33;;;;;;;18.60;10.32;;;;;;;16.48;55.62;99865.03;6154941;23;20350;-36
2023/01/15 01:42:00;;;;;;;18.40;9.68;;;;;;;16.47;55.25;99868.72;6155681;23;20025;-37
2023/01/15 01:44:32;;;;;;;18.88;10.35;;;;;;;16.46;54.98;99872.41;6154780;23;20024;-37
2023/01/15 01:47:01;;;;;;;16.73;9.52;;;;;;;16.46;56.13;99864.38;6155136;23;20029;-38
2023/01/15 01:49:29;;;;;;;17.35;9.40;;;;;;;16.45;55.90;99865.41;6156027;23;20041;-37
2023/01/15 01:52:01;;;;;;;16.85;8.82;;;;;;;16.45;55.62;99876.09;6155783;23;20029;-37
2023/01/15 01:54:33;;;;;;;16.50;9.43;;;;;;;16.45;55.83;99868.06;6155401;23;20040;-37
2023/01/15 01:57:00;;;;;;;16.25;9.10;;;;;;;16.44;55.67;99871.72;6155121;23;20182;-37
2023/01/15 01:59:26;;;;;;;17.58;9.10;;;;;;;16.43;55.38;99876.25;6155772;23;20100;-37
2023/01/15 02:01:53;;;;;;;17.15;9.10;;;;;;;16.43;55.47;99872.72;6155409;23;20049;-37
2023/01/15 02:04:23;;;;;;;16.25;9.40;;;;;;;16.42;55.12;99863.03;6153751;23;20017;-40
2023/01/15 02:06:50;;;;;;;18.98;8.00;;;;;;;16.42;55.03;99869.22;6154975;23;20391;-39
2023/01/15 02:09:17;;;;;;;15.10;8.57;;;;;;;16.41;55.55;99869.41;6154158;23;20022;-39
2023/01/15 02:11:43;;;;;;;16.85;8.02;;;;;;;16.41;55.29;99861.38;6155412;23;20029;-37
2023/01/15 02:14:19;;;;;;;16.38;7.90;;;;;;;16.40;55.05;99862.34;6154733;23;20024;-37
2023/01/15 02:16:49;;;;;;;15.27;8.32;;;;;;;16.39;55.34;99860.69;6155794;23;20029;-39
2023/01/15 02:19:38;;;;;;;15.05;8.10;;;;;;;16.39;54.95;99860.69;6154984;23;20051;-36
2023/01/15 02:22:55;;;;;;;15.68;8.10;;;;;;;16.37;55.58;99844.00;6155443;23;20025;-40
2023/01/15 02:25:30;;;;;;;14.75;7.68;;;;;;;16.41;55.13;99842.66;6104558;23;20413;-39
2023/01/15 02:28:14;;;;;;;14.50;7.43;;;;;;;16.37;55.61;99846.66;6155368;23;20028;-39
2023/01/15 02:30:46;;;;;;;14.02;7.40;;;;;;;16.38;55.55;99843.81;6156458;23;20021;-38
2023/01/15 02:33:17;;;;;;;13.15;6.97;;;;;;;16.39;55.47;99847.31;6154782;23;20286;-36
2023/01/15 02:35:49;;;;;;;13.90;7.13;;;;;;;16.38;55.04;99853.69;6155425;23;20029;-36
2023/01/15 02:38:20;;;;;;;13.75;6.72;;;;;;;16.39;55.61;99841.97;6153373;23;20057;-39
2023/01/15 02:40:50;;;;;;;11.40;6.30;;;;;;;16.38;55.45;99856.34;6155186;23;20025;-38
2023/01/15 02:43:19;;;;;;;13.10;7.05;;;;;;;16.39;56.02;99850.00;6154111;23;20072;-38
2023/01/15 02:45:51;;;;;;;14.88;6.97;;;;;;;16.38;55.22;99861.72;6153189;23;20022;-36
2023/01/15 02:48:21;;;;;;;14.80;6.93;;;;;;;16.39;55.64;99855.34;6153338;23;20248;-38
2023/01/15 02:50:54;;;;;;;12.52;6.97;;;;;;;16.38;56.12;99848.34;6153378;23;20223;-37
2023/01/15 02:53:26;;;;;;;10.38;6.07;;;;;;;16.37;55.15;99847.50;6153670;23;20290;-38
2023/01/15 02:55:58;;;;;;;12.57;6.55;;;;;;;16.37;55.23;99842.16;6154248;23;20101;-38
2023/01/15 02:58:31;;;;;;;11.38;5.63;;;;;;;16.37;55.55;99836.81;6158383;23;20069;-38
2023/01/15 03:01:00;;;;;;;11.60;5.47;;;;;;;16.36;55.11;99835.16;6157719;23;20037;-38
2023/01/15 03:03:53;;;;;;;10.15;5.53;;;;;;;16.35;55.23;99838.78;6157569;23;20021;-36
2023/01/15 03:06:29;;;;;;;10.63;5.53;;;;;;;16.35;55.97;99841.47;6157592;23;20025;-37
2023/01/15 03:08:55;;;;;;;10.35;5.25;;;;;;;16.36;55.88;99844.97;6156583;23;20040;-40
2023/01/15 03:11:22;;;;;;;12.75;5.82;;;;;;;16.35;55.48;99846.00;6157230;23;20446;-39
2023/01/15 03:14:01;;;;;;;10.45;5.03;;;;;;;16.34;55.03;99844.31;6157871;23;20025;-39
2023/01/15 03:16:52;;;;;;;10.13;5.25;;;;;;;16.32;55.24;99849.81;6156836;23;20026;-38
2023/01/15 03:19:35;;;;;;;12.88;5.05;;;;;;;16.33;54.95;99840.00;6156414;23;20030;-37
2023/01/15 03:22:10;;;;;;;10.18;5.68;;;;;;;16.33;56.04;99840.00;6156236;23;20026;-37
2023/01/15 03:24:42;;;;;;;11.43;5.13;;;;;;;16.32;55.81;99833.78;6155905;23;20108;-37
2023/01/15 03:27:09;;;;;;;10.68;4.78;;;;;;;16.32;55.61;99836.44;6157582;23;20117;-36
2023/01/15 03:29:40;;;;;;;11.00;5.25;;;;;;;16.33;55.00;99826.63;6155292;23;20614;-37
2023/01/15 03:32:07;;;;;;;8.98;4.80;;;;;;;16.32;55.51;99838.28;6155005;23;20025;-40
2023/01/15 03:34:51;;;;;;;10.90;4.43;;;;;;;16.28;55.69;99827.94;6155357;23;20026;-38
2023/01/15 03:37:21;;;;;;;10.10;5.38;;;;;;;16.30;55.43;99830.44;6154248;23;20032;-37
2023/01/15 03:39:49;;;;;;;12.02;4.78;;;;;;;16.29;55.92;99832.28;6153375;23;20055;-37
2023/01/15 03:43:39;;;;;;;9.18;4.57;;;;;;;16.29;55.57;99839.47;6154341;23;20032;-39
2023/01/15 03:45:42;;;;;;;9.70;4.85;;;;;;;16.29;55.78;99840.31;6137255;23;20295;-37
2023/01/15 03:48:29;;;;;;;8.50;4.55;;;;;;;16.27;55.68;99842.31;6154620;23;20053;-35
2023/01/15 03:51:12;;;;;;;11.38;4.75;;;;;;;16.28;55.40;99833.31;6154354;23;20190;-39
2023/01/15 03:53:50;;;;;;;11.07;4.72;;;;;;;16.29;56.10;99836.81;6153285;23;20347;-37
2023/01/15 03:56:30;;;;;;;8.32;4.00;;;;;;;16.28;56.03;99816.41;6153616;23;20071;-36
2023/01/15 03:59:31;;;;;;;8.45;4.45;;;;;;;16.28;55.94;99821.75;6155261;23;20129;-36
2023/01/15 04:02:01;;;;;;;8.65;3.67;;;;;;;16.28;56.24;99819.94;6136033;23;20096;-40
2023/01/15 04:04:28;;;;;;;8.90;4.50;;;;;;;16.28;55.90;99817.25;6154231;23;20310;-37
2023/01/15 04:06:56;;;;;;;6.90;3.53;;;;;;;16.28;56.24;99827.94;6155522;23;20088;-36
2023/01/15 04:09:23;;;;;;;11.32;4.60;;;;;;;16.28;56.25;99833.31;6152464;23;20116;-38
2023/01/15 04:11:50;;;;;;;7.35;4.05;;;;;;;16.28;55.43;99835.97;6153274;23;20025;-37
2023/01/15 04:14:16;;;;;;;7.35;3.63;;;;;;;16.27;55.67;99830.78;6154925;23;20021;-36
2023/01/15 04:16:43;;;;;;;7.18;4.00;;;;;;;16.27;56.11;99822.75;6154113;23;20060;-37
2023/01/15 04:19:09;;;;;;;7.05;4.03;;;;;;;16.26;56.08;99832.63;6152608;23;20166;-39
2023/01/15 04:21:36;;;;;;;9.70;4.13;;;;;;;16.27;56.46;99830.78;6153259;23;20026;-37
2023/01/15 04:24:03;;;;;;;8.15;3.97;;;;;;;16.26;55.94;99815.75;6152078;23;20026;-37
2023/01/15 04:26:29;;;;;;;8.23;3.55;;;;;;;16.26;55.82;99816.56;6153873;23;20029;-35
2023/01/15 04:28:56;;;;;;;8.07;3.50;;;;;;;16.26;55.98;99829.13;6154380;23;20075;-36
2023/01/15 04:31:22;;;;;;;10.15;3.90;;;;;;;16.26;56.29;99829.13;6154215;23;20027;-37
2023/01/15 04:33:49;;;;;;;6.05;3.55;;;;;;;16.26;56.41;99837.13;6152791;23;20026;-36
2023/01/15 04:36:16;;;;;;;7.80;3.63;;;;;;;16.25;55.79;99822.09;6153775;23;20118;-37
2023/01/15 04:38:42;;;;;;;9.38;4.13;;;;;;;16.25;56.05;99812.25;6151659;23;20041;-35
2023/01/15 04:44:07;;;;;;;8.55;3.47;;;;;;;16.23;55.87;99819.56;6152668;23;20025;-36
2023/01/15 04:46:41;;;;;;;5.88;3.10;;;;;;;16.24;55.98;99831.09;6153892;23;20072;-38
2023/01/15 04:49:11;;;;;;;6.07;3.50;;;;;;;16.24;55.62;99833.78;6153541;23;20048;-35
2023/01/15 04:51:38;;;;;;;6.97;3.33;;;;;;;16.23;55.26;99832.94;6153382;23;20031;-35
2023/01/15 04:54:07;;;;;;;7.70;3.55;;;;;;;16.22;56.07;99828.59;6153094;23;20148;-35
2023/01/15 04:56:43;;;;;;;6.07;3.50;;;;;;;16.21;55.39;99826.94;6155110;23;20449;-36
2023/01/15 04:59:11;;;;;;;5.68;2.80;;;;;;;16.22;55.75;99833.13;6156407;23;20029;-37
2023/01/15 05:01:38;;;;;;;7.95;3.00;;;;;;;16.21;55.81;99829.63;6155895;23;20022;-35
2023/01/15 05:04:06;;;;;;;7.95;2.58;;;;;;;16.21;55.69;99837.63;6154394;23;20401;-35
2023/01/15 05:06:33;;;;;;;6.97;2.80;;;;;;;16.21;55.49;99821.59;6155499;23;20083;-35
2023/01/15 05:09:00;;;;;;;4.93;2.95;;;;;;;16.21;55.99;99829.63;6153861;23;20033;-37
2023/01/15 05:11:27;;;;;;;5.60;3.25;;;;;;;16.21;55.67;99820.75;6154475;23;20028;-36
2023/01/15 05:13:54;;;;;;;5.85;2.95;;;;;;;16.22;56.46;99822.44;6155788;23;20053;-38
2023/01/15 05:16:25;;;;;;;6.47;2.92;;;;;;;16.22;56.22;99817.06;6130476;23;20456;-36
2023/01/15 05:18:55;;;;;;;6.22;3.08;;;;;;;16.22;56.22;99812.56;6155573;23;20382;-36
2023/01/15 05:21:24;;;;;;;7.05;2.70;;;;;;;16.21;56.17;99810.91;6155993;23;20025;-36
2023/01/15 05:23:54;;;;;;;7.53;3.00;;;;;;;16.22;55.72;99822.44;6155644;23;20100;-35
2023/01/15 05:26:21;;;;;;;5.60;3.05;;;;;;;16.23;56.42;99821.41;6156391;23;20140;-36
2023/01/15 05:28:51;;;;;;;9.05;2.97;;;;;;;16.23;55.99;99824.09;6156502;23;20172;-36
2023/01/15 05:31:19;;;;;;;5.90;2.50;;;;;;;16.21;55.57;99821.59;6156601;23;20028;-37
2023/01/15 05:33:47;;;;;;;6.75;2.53;;;;;;;16.22;56.41;99812.56;6155633;23;20018;-36
2023/01/15 05:36:17;;;;;;;6.90;2.10;;;;;;;16.21;55.28;99816.25;6156730;23;20129;-36
2023/01/15 05:38:44;;;;;;;5.07;2.20;;;;;;;16.21;55.97;99807.41;6154727;23;20026;-37
2023/01/15 05:44:01;;;;;;;4.22;2.13;;;;;;;16.21;55.33;99804.72;6156690;23;20096;-37
2023/01/15 05:46:28;;;;;;;4.43;2.22;;;;;;;16.20;56.02;99808.38;6156006;23;20029;-36
2023/01/15 05:49:02;;;;;;;4.85;2.42;;;;;;;16.20;55.41;99819.06;6156320;23;20100;-36
2023/01/15 05:51:28;;;;;;;;;;;;;;;16.18;56.25;99811.22;6157517;23;20330;-37
2023/01/15 05:53:57;;;;;;;7.88;2.40;;;;;;;16.20;56.51;99814.59;6153866;23;20286;-36
2023/01/15 05:56:24;;;;;;;6.32;2.53;;;;;;;16.20;55.82;99819.94;6153569;23;20283;-36
2023/01/15 05:58:51;;;;;;;4.68;2.50;;;;;;;16.19;56.15;99820.91;6155025;23;20025;-40
2023/01/15 06:01:19;;;;;;;5.38;2.30;;;;;;;16.18;55.61;99818.41;6154563;23;20056;-36
2023/01/15 06:03:47;;;;;;;5.53;2.55;;;;;;;16.18;55.66;99810.41;6155565;23;20025;-37
2023/01/15 06:06:16;;;;;;;5.10;2.30;;;;;;;16.17;55.91;99825.59;6153929;23;20033;-36
2023/01/15 06:08:43;;;;;;;3.70;1.90;;;;;;;16.16;56.39;99818.59;6151834;23;20025;-39
2023/01/15 06:11:10;;;;;;;5.88;2.25;;;;;;;16.16;56.16;99812.38;6153435;23;20032;-39
2023/01/15 06:13:40;;;;;;;4.43;2.08;;;;;;;16.14;56.10;99825.94;6154564;23;20289;-39
2023/01/15 06:16:09;;;;;;;4.32;1.88;;;;;;;16.14;56.17;99828.59;6156063;23;20021;-40
2023/01/15 06:18:37;;;;;;;6.47;1.80;;;;;;;16.14;55.76;99825.09;6154651;23;20029;-38
2023/01/15 06:21:06;;;;;;;4.80;2.30;;;;;;;16.12;55.99;99832.44;6155372;23;20022;-35
2023/01/15 06:23:35;;;;;;;7.07;2.22;;;;;;;16.12;56.16;99837.78;6154181;23;20032;-36
2023/01/15 06:26:03;;;;;;;5.68;1.90;;;;;;;16.11;56.23;99847.63;6155703;23;20068;-35
2023/01/15 06:28:31;;;;;;;4.18;1.85;;;;;;;16.11;56.20;99850.31;6156059;23;20335;-36
2023/01/15 06:30:58;;;;;;;3.42;1.77;;;;;;;16.09;56.16;99849.66;6155789;23;20026;-36
2023/01/15 06:33:25;;;;;;;4.13;1.55;;;;;;;16.09;56.33;99851.50;6157195;23;20026;-37
2023/01/15 06:35:52;;;;;;;4.18;1.52;;;;;;;16.09;55.53;99843.47;6157547;23;20615;-38
2023/01/15 06:38:18;;;;;;;6.68;2.03;;;;;;;16.09;56.30;99848.81;6157169;23;20026;-38
2023/01/15 06:40:45;;;;;;;6.80;1.85;;;;;;;16.08;55.23;99848.00;6158098;23;20021;-36
2023/01/15 06:48:43;;;;;;;4.65;1.92;;;;;;;16.08;56.42;99828.41;6158397;23;20088;-36
2023/01/15 06:51:12;;;;;;;5.03;1.83;;;;;;;16.07;55.67;99824.91;6157394;23;20270;-35
2023/01/15 06:53:38;;;;;;;4.43;2.03;;;;;;;16.08;55.28;99836.44;6155672;23;20027;-36
2023/01/15 06:56:05;;;;;;;5.05;2.00;;;;;;;16.06;56.00;99828.59;6151371;23;20699;-38
2023/01/15 06:58:31;;;;;;;4.22;1.88;;;;;;;16.07;56.15;99832.09;6155922;23;20021;-38
2023/01/15 07:00:58;;;;;;;6.47;1.80;;;;;;;16.06;55.79;99841.13;6155432;23;20029;-37
2023/01/15 07:03:25;;;;;;;6.10;1.50;;;;;;;16.07;56.44;99834.78;6153614;23;20075;-36
2023/01/15 07:05:52;;;;;;;3.80;1.48;;;;;;;16.06;55.64;99822.41;6155254;23;20266;-37
2023/01/15 07:08:18;;;;;;;4.55;1.70;;;;;;;16.06;55.87;99823.25;6152966;23;20026;-36
2023/01/15 07:10:45;;;;;;;4.15;1.52;;;;;;;16.05;55.46;99829.59;6151538;23;20021;-38
2023/01/15 07:13:12;;;;;;;5.13;1.55;;;;;;;16.04;56.02;99825.28;6155824;23;20026;-36
2023/01/15 07:15:38;;;;;;;4.10;1.50;;;;;;;16.04;55.76;99825.28;6157680;23;20097;-35
2023/01/15 07:18:05;;;;;;;5.35;1.95;;;;;;;16.02;55.28;99825.41;6156782;23;20032;-37
2023/01/15 07:20:32;;;;;;;4.32;1.60;;;;;;;16.02;55.19;99820.06;6157205;23;20032;-39
2023/01/15 07:22:58;;;;;;;4.13;1.60;;;;;;;16.01;56.09;99829.09;6155896;23;20021;-36
2023/01/15 07:25:25;;;;;;;4.93;1.63;;;;;;;15.98;56.03;99821.41;6155880;23;20021;-36
2023/01/15 07:27:52;;;;;;;6.65;1.75;;;;;;;15.99;55.10;99824.91;6156472;23;20128;-36
2023/01/15 07:30:18;;;;;;;3.10;1.65;;;;;;;15.97;56.01;99814.41;6157452;23;20032;-36
2023/01/15 07:32:45;;;;;;;8.55;2.20;;;;;;;15.96;55.91;99817.22;6156874;23;20267;-36
2023/01/15 07:35:11;;;;;;;3.60;1.55;;;;;;;15.96;56.02;99817.22;6157328;23;20028;-36
2023/01/15 07:37:38;;;;;;;3.80;1.98;;;;;;;15.95;55.61;99804.84;6156782;23;20025;-36
2023/01/15 07:40:05;;;;;;;4.57;1.95;;;;;;;15.95;54.97;99812.88;6154627;23;20283;-36
2023/01/15 07:50:47;;;;;;;4.93;1.92;;;;;;;15.90;55.54;99801.84;6156986;23;20045;-36
2023/01/15 07:53:14;;;;;;;7.55;2.47;;;;;;;15.91;55.63;99790.16;6156039;23;20101;-37
2023/01/15 07:55:40;;;;;;;5.68;2.25;;;;;;;15.90;55.46;99800.00;6155715;23;20108;-36
2023/01/15 07:58:07;;;;;;;4.55;2.30;;;;;;;15.90;55.23;99804.53;6155257;23;20311;-36
2023/01/15 08:00:33;;;;;;;5.15;1.90;;;;;;;15.89;54.34;99805.53;6157571;23;20092;-37
2023/01/15 08:03:02;;;;;;;6.05;1.77;;;;;;;15.89;54.65;99802.88;6155804;23;20315;-35
2023/01/15 08:05:28;;;;;;;5.18;2.45;;;;;;;15.89;55.09;99806.38;6131490;23;20474;-38
2023/01/15 08:07:55;;;;;;;9.30;2.53;;;;;;;15.88;54.57;99811.84;6154976;23;20040;-36
2023/01/15 08:10:24;;;;;;;5.35;2.00;;;;;;;15.89;54.23;99808.22;6155171;23;20485;-36
2023/01/15 08:15:41;;;;;;;5.88;2.50;;;;;;;15.88;55.26;99814.53;6156408;23;20133;-38
2023/01/15 08:18:08;;;;;;;5.40;2.63;;;;;;;15.88;54.19;99820.75;6156935;23;20618;-38
2023/01/15 08:20:36;;;;;;;8.35;2.58;;;;;;;15.88;54.41;99818.06;6155964;23;20207;-37
2023/01/15 08:23:02;;;;;;;7.13;2.80;;;;;;;15.89;54.32;99818.91;6155437;23;20036;-39
2023/01/15 08:25:29;;;;;;;7.93;2.50;;;;;;;15.89;54.46;99819.72;6154873;23;20018;-40
2023/01/15 08:28:00;;;;;;;6.20;2.83;;;;;;;15.89;54.92;99817.06;6155530;23;20460;-38
2023/01/15 08:30:27;;;;;;;8.77;3.60;;;;;;;15.91;54.71;99825.72;6155425;23;20080;-37
2023/01/15 08:32:58;;;;;;;8.65;2.97;;;;;;;15.92;54.84;99818.53;6156313;23;20362;-38
2023/01/15 08:35:25;;;;;;;8.40;2.95;;;;;;;15.93;55.51;99807.72;6154525;23;20509;-38
2023/01/15 08:37:51;;;;;;;11.63;4.13;;;;;;;15.95;55.01;99804.84;6155593;23;20032;-38
2023/01/15 08:40:18;;;;;;;10.05;4.28;;;;;;;15.94;54.71;99800.53;6154979;23;20021;-37
2023/01/15 08:42:44;;;;;;;9.13;4.00;;;;;;;15.96;54.28;99796.69;6156424;23;20021;-39
2023/01/15 08:45:11;;;;;;;9.73;4.15;;;;;;;15.96;53.71;99802.03;6156487;23;20047;-41
2023/01/15 08:47:38;;;;;;;10.52;4.00;;;;;;;15.97;53.73;99798.34;6155664;23;20294;-37
2023/01/15 08:50:07;;;;;;;10.18;4.22;;;;;;;15.97;53.92;99809.06;6155225;23;20021;-39
2023/01/15 08:52:34;;;;;;;9.25;4.25;;;;;;;15.98;53.42;99812.56;6155544;23;20112;-41
2023/01/15 08:55:01;;;;;;;12.07;4.55;;;;;;;16.01;54.56;99807.72;6153892;23;20096;-37
2023/01/15 08:57:27;;;;;;;9.35;4.20;;;;;;;16.03;53.90;99821.72;6156146;23;20022;-39
2023/01/15 08:59:54;;;;;;;11.70;5.15;;;;;;;16.07;53.94;99818.75;6156774;23;20080;-38
2023/01/15 09:02:20;;;;;;;11.23;5.30;;;;;;;16.10;53.57;99813.06;6156393;23;20282;-38
2023/01/15 09:04:47;;;;;;;11.90;5.47;;;;;;;16.12;53.88;99805.69;6153879;23;20025;-37
2023/01/15 09:07:13;;;;;;;12.68;5.32;;;;;;;16.12;52.78;99813.72;6155837;23;20330;-37
2023/01/15 09:09:40;;;;;;;11.50;5.15;;;;;;;16.12;53.78;99822.59;6154714;23;20159;-39
2023/01/15 09:12:07;;;;;;;12.45;5.28;;;;;;;16.12;53.10;99819.94;6154520;23;20343;-38
2023/01/15 09:14:34;;;;;;;11.80;5.18;;;;;;;16.12;52.80;99830.63;6156828;23;20296;-40
2023/01/15 09:17:21;;;;;;;12.13;5.40;;;;;;;16.12;52.78;99822.59;6154963;23;20032;-38
2023/01/15 09:19:47;;;;;;;10.10;5.45;;;;;;;16.12;53.80;99840.44;6155561;23;20287;-40
2023/01/15 09:22:14;;;;;;;11.98;5.72;;;;;;;16.10;52.94;99829.94;6156432;23;20025;-38
2023/01/15 09:24:40;;;;;;;14.52;6.00;;;;;;;16.09;52.75;99833.63;6152434;23;20028;-38
2023/01/15 09:27:10;;;;;;;16.10;6.05;;;;;;;16.08;53.13;99834.63;6154492;23;20104;-37
2023/01/15 09:29:37;;;;;;;11.90;5.22;;;;;;;16.08;53.55;99828.41;6156628;23;20021;-38
2023/01/15 09:32:03;;;;;;;17.50;5.53;;;;;;;16.07;53.55;99830.25;6155375;23;20025;-37
2023/01/15 09:34:30;;;;;;;12.73;6.03;;;;;;;16.06;52.86;99827.75;6154287;23;20462;-37
2023/01/15 09:36:57;;;;;;;13.57;5.25;;;;;;;16.05;52.62;99824.25;6153136;23;20105;-35
2023/01/15 09:39:23;;;;;;;11.10;4.95;;;;;;;16.04;53.42;99828.78;6154429;23;20413;-36
2023/01/15 09:42:21;;;;;;;15.00;6.43;;;;;;;16.02;53.57;99825.41;6155799;23;20105;-36
2023/01/15 09:45:15;;;;;;;15.18;6.07;;;;;;;16.02;52.88;99822.75;6153863;23;20053;-37
2023/01/15 09:47:55;;;;;;;13.80;5.85;;;;;;;16.04;53.29;99825.28;6154972;23;20021;-35
2023/01/15 09:50:39;;;;;;;15.60;6.97;;;;;;;16.04;53.62;99819.94;6155964;23;20034;-36
2023/01/15 09:53:09;;;;;;;17.02;6.75;;;;;;;16.04;53.73;99826.09;6153757;23;20486;-36
2023/01/15 09:55:44;;;;;;;17.05;7.38;;;;;;;16.03;53.98;99827.06;6153865;23;20061;-35
2023/01/15 09:58:13;;;;;;;16.20;7.50;;;;;;;16.04;53.59;99811.91;6154053;23;20029;-36
2023/01/15 10:00:44;;;;;;;19.05;6.95;;;;;;;16.04;54.23;99802.03;6153212;23;20022;-37
2023/01/15 10:03:47;;;;;;;16.33;7.38;;;;;;;16.04;53.46;99817.25;6155364;23;20029;-39
2023/01/15 10:06:40;;;;;;;14.85;6.78;;;;;;;16.03;53.78;99813.72;6155572;23;20018;-38
2023/01/15 10:09:36;;;;;;;16.02;6.63;;;;;;;16.04;53.63;99819.94;6154079;23;20025;-40
2023/01/15 10:12:34;;;;;;;24.17;7.10;;;;;;;16.07;53.33;99829.44;6155495;23;20049;-39
2023/01/15 10:15:10;;;;;;;22.80;7.30;;;;;;;16.08;53.40;99833.75;6156363;23;20056;-39
2023/01/15 10:17:46;;;;;;;14.23;6.72;;;;;;;16.10;54.43;99843.31;6156512;23;20100;-37
2023/01/15 10:20:56;;;;;;;17.45;6.93;;;;;;;16.12;54.29;99840.44;6154564;23;20025;-39
2023/01/15 10:24:10;;;;;;;17.73;6.72;;;;;;;16.16;53.19;99848.00;6114512;23;20331;-35
2023/01/15 10:26:39;;;;;;;17.83;6.67;;;;;;;16.21;53.10;99850.16;6128060;23;20053;-36
2023/01/15 10:29:40;;;;;;;17.13;5.65;;;;;;;16.24;53.05;99840.00;6154984;23;20025;-36
2023/01/15 10:32:23;;;;;;;14.90;5.63;;;;;;;16.25;52.02;99838.97;6155296;23;20105;-35
2023/01/15 10:35:06;;;;;;;14.03;5.73;;;;;;;16.28;52.51;99849.34;6154354;23;20061;-35
2023/01/15 10:37:40;;;;;;;12.48;6.40;;;;;;;16.28;51.67;99844.00;6156316;23;20084;-36
2023/01/15 10:40:30;;;;;;;19.20;6.05;;;;;;;16.28;52.02;99848.47;6153845;23;20026;-39
2023/01/15 10:43:19;;;;;;;16.75;6.18;;;;;;;16.29;52.72;99853.69;6099717;23;20283;-39
2023/01/15 10:45:58;;;;;;;14.57;5.68;;;;;;;16.29;51.98;99851.00;6155854;23;20025;-38
2023/01/15 10:48:44;;;;;;;12.60;5.80;;;;;;;16.28;51.59;99859.19;6155462;23;20083;-39
2023/01/15 10:51:28;;;;;;;12.07;5.72;;;;;;;16.27;52.18;99858.34;6155063;23;20028;-39
2023/01/15 10:54:02;;;;;;;;;;;;;;;16.23;52.53;99862.34;6154394;23;20271;-38
2023/01/15 10:56:44;;;;;;;16.23;5.30;;;;;;;16.24;52.30;99848.00;6154693;23;19920;-37
2023/01/15 10:59:32;;;;;;;18.25;5.93;;;;;;;16.24;52.38;99850.69;6155616;23;20030;-39
2023/01/15 11:02:01;;;;;;;12.40;5.50;;;;;;;16.22;52.58;99850.00;6152435;23;20025;-40
2023/01/15 11:04:31;;;;;;;15.15;5.38;;;;;;;16.21;52.19;99848.34;6153979;23;20112;-37
2023/01/15 11:06:59;;;;;;;11.85;4.90;;;;;;;16.19;52.01;99839.63;6155295;23;20049;-36
2023/01/15 11:09:33;;;;;;;16.35;6.60;;;;;;;16.19;52.26;99828.94;6153808;23;20025;-38
2023/01/15 11:20:28;;;;;;;14.70;6.40;;;;;;;16.19;52.39;99857.50;6156269;23;20512;-38
2023/01/15 11:22:56;;;;;;;14.15;6.90;;;;;;;16.19;52.95;99865.53;6156253;23;20332;-36
2023/01/15 11:25:31;;;;;;;14.75;6.57;;;;;;;16.18;52.62;99856.69;6156737;23;20101;-37
2023/01/15 11:28:04;;;;;;;14.90;6.57;;;;;;;16.19;52.95;99861.00;6158409;23;20029;-38
2023/01/15 11:30:33;;;;;;;16.13;7.38;;;;;;;16.19;52.63;99847.66;6157243;23;20028;-37
2023/01/15 11:33:05;;;;;;;18.65;7.25;;;;;;;16.20;52.85;99851.16;6156539;23;20104;-37
2023/01/15 11:35:33;;;;;;;18.35;7.35;;;;;;;16.21;53.01;99852.84;6157286;23;20025;-39
2023/01/15 11:38:05;;;;;;;18.88;8.13;;;;;;;16.20;52.52;99843.13;6156484;23;20033;-38
2023/01/15 11:40:32;;;;;;;19.77;7.63;;;;;;;16.21;53.11;99851.00;6156831;23;20025;-37
2023/01/15 11:51:40;;;;;;;14.07;6.88;;;;;;;16.23;52.11;99846.31;6156051;23;20028;-37
2023/01/15 11:54:12;;;;;;;17.33;6.95;;;;;;;16.24;52.69;99840.00;6130063;23;20398;-37
2023/01/15 11:56:43;;;;;;;18.13;7.47;;;;;;;16.24;52.79;99850.69;6150791;23;20022;-39
2023/01/15 11:59:13;;;;;;;20.23;8.18;;;;;;;16.25;52.96;99843.50;6156126;23;20036;-36
2023/01/15 12:01:56;;;;;;;17.75;7.32;;;;;;;16.23;52.72;99840.13;6157277;23;20144;-36
2023/01/15 12:04:35;;;;;;;18.02;7.97;;;;;;;16.23;52.95;99845.47;6157086;23;20289;-36
2023/01/15 12:07:04;;;;;;;16.38;6.72;;;;;;;16.22;51.85;99839.31;6155596;23;20026;-37
2023/01/15 12:10:09;;;;;;;14.35;6.55;;;;;;;16.18;52.44;99835.28;6155541;23;20294;-38
2023/01/15 12:12:43;;;;;;;16.35;6.63;;;;;;;16.18;52.69;99845.97;6156474;23;20021;-36
2023/01/15 12:15:22;;;;;;;19.75;7.72;;;;;;;16.18;52.56;99859.34;6156089;23;20028;-36
2023/01/15 12:17:51;;;;;;;17.65;6.88;;;;;;;16.17;52.33;99867.53;6155575;23;20325;-37
2023/01/15 12:20:55;;;;;;;13.45;6.35;;;;;;;16.14;53.07;99873.22;6155038;23;20478;-37
2023/01/15 12:23:37;;;;;;;15.50;6.50;;;;;;;16.13;52.53;99874.22;6155651;23;20433;-38
2023/01/15 12:26:23;;;;;;;14.90;6.32;;;;;;;16.12;52.56;99854.69;6155238;23;20531;-38
2023/01/15 12:29:15;;;;;;;14.20;6.63;;;;;;;16.10;52.41;99856.66;6155360;23;20032;-36